Yankee — WDF4108 — position and weather

sailwx.info

Track history (hours):
 
Tides and Currents Weather Stations Pressure Air Temp Water Temp Dewpoint Dewpoint Depression Visibility Wind Speed Wind Dir Waves Ship Positions

Yankee

Owner: United New York & New Jersey Sandy Hook Pilots Association, Staten Island, NY. More information available from US FCC via Universal Licensing System and Coast Guard Vessel Documentation Center.

Last reported at 2017-Oct-19 18:14 UTC. Time now 2017-Oct-20 01:39 UTC.
Position N 40°37' W 074°03'.

Length 17 m; draft 2.6 m.

Type: Pilot. MMSI: 367448070.

Date/timePositionNaut miles runAvg speedWind from/ knotsBaromVisibWave heightAir tempDewpointWater temp
2017-Oct-19 18:14N 40°37' W 074°03'418.4
2017-Oct-19 18:00N 40°33' W 074°00'711.2
2017-Oct-19 17:24N 40°29' W 073°53'1025.3
2017-Oct-19 17:00N 40°36' W 074°03'  
2017-Oct-14 14:05N 40°36' W 074°03'1 8.4
2017-Oct-14 13:59N 40°36' W 074°03'4 2.9
2017-Oct-14 12:28N 40°32' W 073°59'6 3.4
2017-Oct-14 10:48N 40°37' W 074°04'6 6.3
2017-Oct-14 09:51N 40°32' W 073°59'6 1.0
2017-Oct-14 04:19N 40°37' W 074°03'6 4.2
2017-Oct-14 03:00N 40°31' W 074°00'5 0.7
2017-Oct-13 19:27N 40°37' W 074°03'6 3.7
2017-Oct-13 17:56N 40°31' W 074°00'511.6
2017-Oct-13 17:30N 40°36' W 074°03'0 0.0
2017-Oct-12 21:56N 40°36' W 074°03'8 6.0
2017-Oct-12 20:33N 40°30' W 073°56'218.2
2017-Oct-12 20:26N 40°31' W 073°59'7 1.4
2017-Oct-12 15:35N 40°37' W 074°03'3 2.1
2017-Oct-12 14:08N 40°34' W 074°01'321.4
2017-Oct-12 14:00N 40°36' W 074°03'1 0.2
2017-Oct-12 11:19N 40°37' W 074°03'5 3.5
2017-Oct-12 09:54N 40°32' W 073°60'7 1.7
2017-Oct-12 05:46N 40°39' W 074°04'1 2.9
2017-Oct-12 05:30N 40°39' W 074°03'3 0.2
2017-Oct-11 17:18N 40°37' W 074°03'0 0.0
2017-Oct-10 17:09N 40°37' W 074°03'423.8
2017-Oct-10 17:00N 40°34' W 074°01'1 1.3
2017-Oct-10 15:51N 40°32' W 073°60'5 1.1
2017-Oct-10 11:31N 40°37' W 074°03'122.3
2017-Oct-10 11:29N 40°36' W 074°03'6 3.6
2017-Oct-10 09:55N 40°31' W 073°59'716.8
2017-Oct-10 09:31N 40°37' W 074°04'0 0.0
2017-Oct-10 02:40N 40°37' W 074°04'2 2.4
2017-Oct-10 02:00N 40°36' W 074°03'1 0.1
2017-Oct-09 19:54N 40°36' W 074°03'4 2.8
2017-Oct-09 18:35N 40°33' W 074°01'219.6
2017-Oct-09 18:30N 40°35' W 074°02'  
Track history (hours):
 
Tides and Currents Weather Stations Pressure Air Temp Water Temp Dewpoint Dewpoint Depression Visibility Wind Speed Wind Dir Waves Ship Positions

Yankee

Owner: United New York & New Jersey Sandy Hook Pilots Association, Staten Island, NY. More information available from US FCC via Universal Licensing System and Coast Guard Vessel Documentation Center.

Last reported at 2017-Oct-19 18:14 UTC. Time now 2017-Oct-20 01:39 UTC.
Position N 40°37' W 074°03'.

Length 17 m; draft 2.6 m.

Type: Pilot. MMSI: 367448070.

Date/timePositionNaut miles runAvg speedWind from/ knotsBaromVisibWave heightAir tempDewpointWater temp
2017-Oct-19 18:14N 40°37' W 074°03'418.4
2017-Oct-19 18:00N 40°33' W 074°00'711.2
2017-Oct-19 17:24N 40°29' W 073°53'1025.3
2017-Oct-19 17:00N 40°36' W 074°03'  
2017-Oct-14 14:05N 40°36' W 074°03'1 8.4
2017-Oct-14 13:59N 40°36' W 074°03'4 2.9
2017-Oct-14 12:28N 40°32' W 073°59'6 3.4
2017-Oct-14 10:48N 40°37' W 074°04'6 6.3
2017-Oct-14 09:51N 40°32' W 073°59'6 1.0
2017-Oct-14 04:19N 40°37' W 074°03'6 4.2
2017-Oct-14 03:00N 40°31' W 074°00'5 0.7
2017-Oct-13 19:27N 40°37' W 074°03'6 3.7
2017-Oct-13 17:56N 40°31' W 074°00'511.6
2017-Oct-13 17:30N 40°36' W 074°03'0 0.0
2017-Oct-12 21:56N 40°36' W 074°03'8 6.0
2017-Oct-12 20:33N 40°30' W 073°56'218.2
2017-Oct-12 20:26N 40°31' W 073°59'7 1.4
2017-Oct-12 15:35N 40°37' W 074°03'3 2.1
2017-Oct-12 14:08N 40°34' W 074°01'321.4
2017-Oct-12 14:00N 40°36' W 074°03'1 0.2
2017-Oct-12 11:19N 40°37' W 074°03'5 3.5
2017-Oct-12 09:54N 40°32' W 073°60'7 1.7
2017-Oct-12 05:46N 40°39' W 074°04'1 2.9
2017-Oct-12 05:30N 40°39' W 074°03'3 0.2
2017-Oct-11 17:18N 40°37' W 074°03'0 0.0
2017-Oct-10 17:09N 40°37' W 074°03'423.8
2017-Oct-10 17:00N 40°34' W 074°01'1 1.3
2017-Oct-10 15:51N 40°32' W 073°60'5 1.1
2017-Oct-10 11:31N 40°37' W 074°03'122.3
2017-Oct-10 11:29N 40°36' W 074°03'6 3.6
2017-Oct-10 09:55N 40°31' W 073°59'716.8
2017-Oct-10 09:31N 40°37' W 074°04'0 0.0
2017-Oct-10 02:40N 40°37' W 074°04'2 2.4
2017-Oct-10 02:00N 40°36' W 074°03'1 0.1
2017-Oct-09 19:54N 40°36' W 074°03'4 2.8
2017-Oct-09 18:35N 40°33' W 074°01'219.6
2017-Oct-09 18:30N 40°35' W 074°02'  

Dump ship's entire track history